sensor_id;sensor_type;location;lat;lon;timestamp;pressure;altitude;pressure_sealevel;temperature;humidity
8894;BME280;4483;48.622;9.230;2022-07-23T00:01:56;97897.97;;;23.14;80.54
8894;BME280;4483;48.622;9.230;2022-07-23T00:04:23;97901.13;;;23.08;81.59
8894;BME280;4483;48.622;9.230;2022-07-23T00:06:49;97897.25;;;23.12;81.98
8894;BME280;4483;48.622;9.230;2022-07-23T00:09:16;97892.41;;;23.08;81.36
8894;BME280;4483;48.622;9.230;2022-07-23T00:11:43;97910.41;;;23.12;81.24
8894;BME280;4483;48.622;9.230;2022-07-23T00:14:09;97909.31;;;23.15;81.84
8894;BME280;4483;48.622;9.230;2022-07-23T00:16:36;97900.44;;;23.16;82.61
8894;BME280;4483;48.622;9.230;2022-07-23T00:19:04;97882.03;;;23.16;81.77
8894;BME280;4483;48.622;9.230;2022-07-23T00:21:30;97863.78;;;23.14;81.84
8894;BME280;4483;48.622;9.230;2022-07-23T00:23:57;97871.13;;;23.11;82.54
8894;BME280;4483;48.622;9.230;2022-07-23T00:26:24;97855.34;;;23.11;83.05
8894;BME280;4483;48.622;9.230;2022-07-23T00:28:50;97868.06;;;23.06;83.11
8894;BME280;4483;48.622;9.230;2022-07-23T00:31:17;97873.06;;;23.09;82.49
8894;BME280;4483;48.622;9.230;2022-07-23T00:33:44;97861.16;;;23.05;82.91
8894;BME280;4483;48.622;9.230;2022-07-23T00:36:12;97863.38;;;23.00;83.76
8894;BME280;4483;48.622;9.230;2022-07-23T00:38:39;97863.50;;;22.88;84.18
8894;BME280;4483;48.622;9.230;2022-07-23T00:41:06;97860.88;;;22.88;84.80
8894;BME280;4483;48.622;9.230;2022-07-23T00:43:32;97860.59;;;22.91;85.15
8894;BME280;4483;48.622;9.230;2022-07-23T00:46:00;97855.63;;;22.88;84.83
8894;BME280;4483;48.622;9.230;2022-07-23T00:48:27;97850.78;;;22.84;85.62
8894;BME280;4483;48.622;9.230;2022-07-23T00:50:54;97854.22;;;22.75;85.80
8894;BME280;4483;48.622;9.230;2022-07-23T00:53:23;97853.53;;;22.73;86.01
8894;BME280;4483;48.622;9.230;2022-07-23T00:55:50;97840.97;;;22.57;86.04
8894;BME280;4483;48.622;9.230;2022-07-23T00:58:18;97840.34;;;22.44;86.71
8894;BME280;4483;48.622;9.230;2022-07-23T01:00:45;97844.88;;;22.33;86.35
8894;BME280;4483;48.622;9.230;2022-07-23T01:03:12;97839.88;;;22.20;84.78
8894;BME280;4483;48.622;9.230;2022-07-23T01:05:38;97838.59;;;22.15;83.63
8894;BME280;4483;48.622;9.230;2022-07-23T01:08:06;97823.00;;;22.13;83.02
8894;BME280;4483;48.622;9.230;2022-07-23T01:10:34;97828.53;;;22.20;83.11
8894;BME280;4483;48.622;9.230;2022-07-23T01:13:02;97836.31;;;22.21;82.97
8894;BME280;4483;48.622;9.230;2022-07-23T01:15:30;97852.47;;;22.26;83.28
8894;BME280;4483;48.622;9.230;2022-07-23T01:17:57;97863.00;;;22.36;83.30
8894;BME280;4483;48.622;9.230;2022-07-23T01:20:24;97851.81;;;22.43;79.26
8894;BME280;4483;48.622;9.230;2022-07-23T01:22:52;97835.50;;;22.30;79.08
8894;BME280;4483;48.622;9.230;2022-07-23T01:25:19;97817.38;;;22.18;77.62
8894;BME280;4483;48.622;9.230;2022-07-23T01:27:47;97822.72;;;22.16;78.21
8894;BME280;4483;48.622;9.230;2022-07-23T01:30:14;97809.88;;;22.13;78.09
8894;BME280;4483;48.622;9.230;2022-07-23T01:32:41;97794.97;;;22.14;77.67
8894;BME280;4483;48.622;9.230;2022-07-23T01:35:08;97781.19;;;22.21;76.70
8894;BME280;4483;48.622;9.230;2022-07-23T01:37:36;97763.38;;;22.25;77.65
8894;BME280;4483;48.622;9.230;2022-07-23T01:40:06;97749.13;;;22.37;77.17
8894;BME280;4483;48.622;9.230;2022-07-23T01:42:33;97750.53;;;22.41;77.49
8894;BME280;4483;48.622;9.230;2022-07-23T01:45:02;97755.78;;;22.50;78.61
8894;BME280;4483;48.622;9.230;2022-07-23T01:47:29;97741.97;;;22.48;78.91
8894;BME280;4483;48.622;9.230;2022-07-23T01:49:55;97806.22;;;22.44;79.85
8894;BME280;4483;48.622;9.230;2022-07-23T01:52:22;97811.88;;;22.49;79.02
8894;BME280;4483;48.622;9.230;2022-07-23T01:54:48;97818.78;;;22.41;78.96
8894;BME280;4483;48.622;9.230;2022-07-23T01:57:16;97826.81;;;22.39;79.11
8894;BME280;4483;48.622;9.230;2022-07-23T01:59:43;97813.22;;;22.34;79.03
8894;BME280;4483;48.622;9.230;2022-07-23T02:02:10;97804.94;;;22.29;79.90
8894;BME280;4483;48.622;9.230;2022-07-23T02:04:36;97809.75;;;22.15;80.33
8894;BME280;4483;48.622;9.230;2022-07-23T02:07:04;97812.09;;;22.08;81.04
8894;BME280;4483;48.622;9.230;2022-07-23T02:09:31;97810.41;;;22.07;81.95
8894;BME280;4483;48.622;9.230;2022-07-23T02:11:58;97817.06;;;22.11;82.54
8894;BME280;4483;48.622;9.230;2022-07-23T02:14:26;97813.47;;;22.22;81.76
8894;BME280;4483;48.622;9.230;2022-07-23T02:16:52;97821.66;;;22.28;81.53
8894;BME280;4483;48.622;9.230;2022-07-23T02:19:19;97839.06;;;22.29;81.61
8894;BME280;4483;48.622;9.230;2022-07-23T02:21:46;97847.22;;;22.26;81.59
8894;BME280;4483;48.622;9.230;2022-07-23T02:24:12;97852.28;;;22.18;82.22
8894;BME280;4483;48.622;9.230;2022-07-23T02:26:39;97851.59;;;22.16;82.91
8894;BME280;4483;48.622;9.230;2022-07-23T02:29:06;97850.66;;;22.17;82.55
8894;BME280;4483;48.622;9.230;2022-07-23T02:31:34;97867.63;;;22.13;82.92
8894;BME280;4483;48.622;9.230;2022-07-23T02:34:02;97873.56;;;22.15;82.82
8894;BME280;4483;48.622;9.230;2022-07-23T02:36:28;97869.25;;;22.14;82.74
8894;BME280;4483;48.622;9.230;2022-07-23T02:38:55;97889.03;;;22.18;82.52
8894;BME280;4483;48.622;9.230;2022-07-23T02:41:22;97887.25;;;22.19;82.82
8894;BME280;4483;48.622;9.230;2022-07-23T02:43:49;97880.88;;;22.12;82.96
8894;BME280;4483;48.622;9.230;2022-07-23T02:46:16;97888.03;;;22.10;82.52
8894;BME280;4483;48.622;9.230;2022-07-23T02:48:44;97896.84;;;21.99;83.17
8894;BME280;4483;48.622;9.230;2022-07-23T02:51:10;97904.81;;;21.97;82.42
8894;BME280;4483;48.622;9.230;2022-07-23T02:53:37;97899.56;;;21.88;82.92
8894;BME280;4483;48.622;9.230;2022-07-23T02:56:04;97906.38;;;21.79;84.26
8894;BME280;4483;48.622;9.230;2022-07-23T02:58:31;97913.03;;;21.83;84.30
8894;BME280;4483;48.622;9.230;2022-07-23T03:00:57;97906.44;;;21.89;84.43
8894;BME280;4483;48.622;9.230;2022-07-23T03:03:24;97901.53;;;21.95;84.21
8894;BME280;4483;48.622;9.230;2022-07-23T03:05:52;97905.66;;;21.98;84.33
8894;BME280;4483;48.622;9.230;2022-07-23T03:08:18;97905.41;;;22.01;84.30
8894;BME280;4483;48.622;9.230;2022-07-23T03:10:45;97906.56;;;22.08;83.77
8894;BME280;4483;48.622;9.230;2022-07-23T03:13:12;97900.31;;;22.09;83.41
8894;BME280;4483;48.622;9.230;2022-07-23T03:15:38;97897.84;;;22.08;83.16
8894;BME280;4483;48.622;9.230;2022-07-23T03:18:05;97900.28;;;21.99;83.69
8894;BME280;4483;48.622;9.230;2022-07-23T03:20:32;97911.88;;;21.97;84.59
8894;BME280;4483;48.622;9.230;2022-07-23T03:23:00;97908.41;;;21.96;84.79
8894;BME280;4483;48.622;9.230;2022-07-23T03:25:27;97911.75;;;21.98;84.86
8894;BME280;4483;48.622;9.230;2022-07-23T03:27:53;97909.78;;;21.91;84.73
8894;BME280;4483;48.622;9.230;2022-07-23T03:30:20;97912.19;;;21.83;85.50
8894;BME280;4483;48.622;9.230;2022-07-23T03:32:46;97905.31;;;21.82;85.39
8894;BME280;4483;48.622;9.230;2022-07-23T03:35:13;97906.97;;;21.83;85.48
8894;BME280;4483;48.622;9.230;2022-07-23T03:37:40;97905.31;;;21.82;85.69
8894;BME280;4483;48.622;9.230;2022-07-23T03:40:09;97902.09;;;21.78;85.84
8894;BME280;4483;48.622;9.230;2022-07-23T03:42:36;97900.41;;;21.77;85.85
8894;BME280;4483;48.622;9.230;2022-07-23T03:45:05;97890.19;;;21.74;85.92
8894;BME280;4483;48.622;9.230;2022-07-23T03:47:32;97891.59;;;21.78;85.46
8894;BME280;4483;48.622;9.230;2022-07-23T03:49:59;97895.16;;;21.77;85.40
8894;BME280;4483;48.622;9.230;2022-07-23T03:52:25;97896.91;;;21.67;85.52
8894;BME280;4483;48.622;9.230;2022-07-23T03:54:52;97896.00;;;21.57;86.23
8894;BME280;4483;48.622;9.230;2022-07-23T03:57:20;97902.66;;;21.61;86.19
8894;BME280;4483;48.622;9.230;2022-07-23T03:59:47;97910.22;;;21.55;85.56
8894;BME280;4483;48.622;9.230;2022-07-23T04:02:14;97915.53;;;21.44;87.18
8894;BME280;4483;48.622;9.230;2022-07-23T04:04:40;97922.41;;;21.45;87.30
8894;BME280;4483;48.622;9.230;2022-07-23T04:07:07;97932.13;;;21.54;87.23
8894;BME280;4483;48.622;9.230;2022-07-23T04:09:34;97934.00;;;21.63;86.70
8894;BME280;4483;48.622;9.230;2022-07-23T04:12:00;97933.75;;;21.66;86.63
8894;BME280;4483;48.622;9.230;2022-07-23T04:14:28;97933.63;;;21.67;86.25
8894;BME280;4483;48.622;9.230;2022-07-23T04:16:55;97927.81;;;21.64;86.14
8894;BME280;4483;48.622;9.230;2022-07-23T04:19:22;97925.97;;;21.55;86.34
8894;BME280;4483;48.622;9.230;2022-07-23T04:21:48;97930.75;;;21.50;86.83
8894;BME280;4483;48.622;9.230;2022-07-23T04:24:15;97935.03;;;21.51;86.89
8894;BME280;4483;48.622;9.230;2022-07-23T04:26:42;97938.22;;;21.54;86.84
8894;BME280;4483;48.622;9.230;2022-07-23T04:29:08;97938.56;;;21.61;86.91
8894;BME280;4483;48.622;9.230;2022-07-23T04:31:36;97933.22;;;21.72;86.46
8894;BME280;4483;48.622;9.230;2022-07-23T04:34:03;97938.69;;;21.80;85.91
8894;BME280;4483;48.622;9.230;2022-07-23T04:36:30;97945.25;;;21.74;85.62
8894;BME280;4483;48.622;9.230;2022-07-23T04:38:57;97948.78;;;21.64;86.09
8894;BME280;4483;48.622;9.230;2022-07-23T04:41:23;97939.63;;;21.58;86.35
8894;BME280;4483;48.622;9.230;2022-07-23T04:43:50;97926.13;;;21.63;86.66
8894;BME280;4483;48.622;9.230;2022-07-23T04:46:18;97929.09;;;21.69;86.16
8894;BME280;4483;48.622;9.230;2022-07-23T04:48:46;97927.03;;;21.73;86.14
8894;BME280;4483;48.622;9.230;2022-07-23T04:51:12;97934.44;;;21.79;85.97
8894;BME280;4483;48.622;9.230;2022-07-23T04:53:39;97925.78;;;21.88;85.65
8894;BME280;4483;48.622;9.230;2022-07-23T04:56:06;97930.47;;;21.94;85.61
8894;BME280;4483;48.622;9.230;2022-07-23T04:58:33;97927.91;;;22.04;85.28
8894;BME280;4483;48.622;9.230;2022-07-23T05:01:00;97935.56;;;22.16;84.65
8894;BME280;4483;48.622;9.230;2022-07-23T05:03:26;97929.97;;;22.30;84.39
8894;BME280;4483;48.622;9.230;2022-07-23T05:05:54;97927.97;;;22.43;84.00
8894;BME280;4483;48.622;9.230;2022-07-23T05:08:21;97934.59;;;22.47;83.57
8894;BME280;4483;48.622;9.230;2022-07-23T05:10:48;97934.19;;;22.52;83.31
8894;BME280;4483;48.622;9.230;2022-07-23T05:13:15;97942.38;;;22.58;83.07
8894;BME280;4483;48.622;9.230;2022-07-23T05:15:42;97940.75;;;22.57;82.94
8894;BME280;4483;48.622;9.230;2022-07-23T05:18:09;97942.22;;;22.50;82.81
8894;BME280;4483;48.622;9.230;2022-07-23T05:20:35;97942.16;;;22.41;83.23
8894;BME280;4483;48.622;9.230;2022-07-23T05:23:04;97932.59;;;22.30;83.51
8894;BME280;4483;48.622;9.230;2022-07-23T05:25:30;97928.88;;;22.33;83.81
8894;BME280;4483;48.622;9.230;2022-07-23T05:27:57;97938.72;;;22.40;83.53
8894;BME280;4483;48.622;9.230;2022-07-23T05:30:24;97940.28;;;22.52;83.09
8894;BME280;4483;48.622;9.230;2022-07-23T05:32:51;97935.63;;;22.65;82.38
8894;BME280;4483;48.622;9.230;2022-07-23T05:35:17;97935.41;;;22.78;81.70
8894;BME280;4483;48.622;9.230;2022-07-23T05:37:44;97935.16;;;22.90;81.31
8894;BME280;4483;48.622;9.230;2022-07-23T05:40:12;97933.63;;;22.98;80.81
8894;BME280;4483;48.622;9.230;2022-07-23T05:42:40;97946.63;;;22.99;80.86
8894;BME280;4483;48.622;9.230;2022-07-23T05:45:08;97952.44;;;22.83;81.31
8894;BME280;4483;48.622;9.230;2022-07-23T05:47:42;97952.13;;;22.77;81.72
8894;BME280;4483;48.622;9.230;2022-07-23T05:50:10;97949.63;;;22.75;82.02
8894;BME280;4483;48.622;9.230;2022-07-23T05:52:37;97951.97;;;22.78;82.24
8894;BME280;4483;48.622;9.230;2022-07-23T05:55:05;97945.78;;;22.79;82.32
8894;BME280;4483;48.622;9.230;2022-07-23T05:57:33;97935.53;;;22.86;81.79
8894;BME280;4483;48.622;9.230;2022-07-23T06:00:00;97941.09;;;22.92;81.22
8894;BME280;4483;48.622;9.230;2022-07-23T06:02:27;97957.56;;;23.04;80.96
8894;BME280;4483;48.622;9.230;2022-07-23T06:04:53;97958.56;;;23.13;80.80
8894;BME280;4483;48.622;9.230;2022-07-23T06:07:20;97958.13;;;23.27;80.40
8894;BME280;4483;48.622;9.230;2022-07-23T06:09:47;97940.56;;;23.37;79.78
8894;BME280;4483;48.622;9.230;2022-07-23T06:12:14;97940.72;;;23.54;78.77
8894;BME280;4483;48.622;9.230;2022-07-23T06:14:42;97936.94;;;23.76;77.90
8894;BME280;4483;48.622;9.230;2022-07-23T06:17:09;97927.19;;;24.15;76.82
8894;BME280;4483;48.622;9.230;2022-07-23T06:19:36;97930.56;;;24.61;75.76
8894;BME280;4483;48.622;9.230;2022-07-23T06:22:03;97918.69;;;25.02;73.92
8894;BME280;4483;48.622;9.230;2022-07-23T06:24:29;97911.22;;;25.33;72.28
8894;BME280;4483;48.622;9.230;2022-07-23T06:26:56;97895.25;;;25.52;70.70
8894;BME280;4483;48.622;9.230;2022-07-23T06:29:23;97899.88;;;25.75;69.02
8894;BME280;4483;48.622;9.230;2022-07-23T06:31:51;97904.19;;;26.02;69.02
8894;BME280;4483;48.622;9.230;2022-07-23T06:34:17;97918.56;;;26.33;68.12
8894;BME280;4483;48.622;9.230;2022-07-23T06:36:44;97920.03;;;26.69;66.69
8894;BME280;4483;48.622;9.230;2022-07-23T06:39:11;97925.53;;;26.92;65.13
8894;BME280;4483;48.622;9.230;2022-07-23T06:41:38;97932.00;;;26.90;63.77
8894;BME280;4483;48.622;9.230;2022-07-23T06:44:04;97926.66;;;26.73;63.29
8894;BME280;4483;48.622;9.230;2022-07-23T06:46:31;97944.03;;;26.84;63.64
8894;BME280;4483;48.622;9.230;2022-07-23T06:48:59;97929.72;;;27.11;62.96
8894;BME280;4483;48.622;9.230;2022-07-23T06:51:26;97922.53;;;27.45;62.15
8894;BME280;4483;48.622;9.230;2022-07-23T06:53:53;97927.78;;;27.77;60.56
8894;BME280;4483;48.622;9.230;2022-07-23T06:56:19;97926.13;;;27.92;59.79
8894;BME280;4483;48.622;9.230;2022-07-23T06:58:46;97938.19;;;27.87;59.28
8894;BME280;4483;48.622;9.230;2022-07-23T07:01:13;97924.97;;;27.78;59.58
8894;BME280;4483;48.622;9.230;2022-07-23T07:03:39;97924.97;;;27.78;59.75
8894;BME280;4483;48.622;9.230;2022-07-23T07:06:08;97940.03;;;27.78;59.32
8894;BME280;4483;48.622;9.230;2022-07-23T07:08:34;97955.25;;;27.68;59.53
8894;BME280;4483;48.622;9.230;2022-07-23T07:11:01;97965.50;;;27.55;58.89
8894;BME280;4483;48.622;9.230;2022-07-23T07:13:28;97979.56;;;27.39;59.66
8894;BME280;4483;48.622;9.230;2022-07-23T07:15:55;97993.22;;;27.19;59.81
8894;BME280;4483;48.622;9.230;2022-07-23T07:18:21;97990.03;;;26.99;60.59
8894;BME280;4483;48.622;9.230;2022-07-23T07:20:48;97992.47;;;26.85;61.02
8894;BME280;4483;48.622;9.230;2022-07-23T07:23:16;97986.47;;;26.74;60.68
8894;BME280;4483;48.622;9.230;2022-07-23T07:25:43;97981.34;;;26.73;60.94
8894;BME280;4483;48.622;9.230;2022-07-23T07:28:10;97976.09;;;26.81;60.36
8894;BME280;4483;48.622;9.230;2022-07-23T07:30:36;97971.94;;;26.78;60.21
8894;BME280;4483;48.622;9.230;2022-07-23T07:33:03;97966.16;;;26.75;59.17
8894;BME280;4483;48.622;9.230;2022-07-23T07:35:30;97981.22;;;26.83;58.00
8894;BME280;4483;48.622;9.230;2022-07-23T07:37:57;97990.75;;;27.25;58.26
8894;BME280;4483;48.622;9.230;2022-07-23T07:40:25;97985.53;;;27.82;57.94
8894;BME280;4483;48.622;9.230;2022-07-23T07:42:53;97977.25;;;28.17;57.04
8894;BME280;4483;48.622;9.230;2022-07-23T07:45:22;97982.34;;;28.34;55.71
8894;BME280;4483;48.622;9.230;2022-07-23T07:47:50;97980.38;;;28.28;54.11
8894;BME280;4483;48.622;9.230;2022-07-23T07:50:16;97979.56;;;28.20;53.93
8894;BME280;4483;48.622;9.230;2022-07-23T07:52:43;97988.66;;;28.25;53.15
8894;BME280;4483;48.622;9.230;2022-07-23T07:55:10;97989.66;;;28.24;53.28
8894;BME280;4483;48.622;9.230;2022-07-23T07:57:38;97991.16;;;28.19;52.82
8894;BME280;4483;48.622;9.230;2022-07-23T08:00:07;97997.94;;;28.21;52.72
8894;BME280;4483;48.622;9.230;2022-07-23T08:02:40;98001.25;;;28.15;51.67
8894;BME280;4483;48.622;9.230;2022-07-23T08:05:08;98006.06;;;28.12;51.47
8894;BME280;4483;48.622;9.230;2022-07-23T08:07:35;98020.94;;;28.29;51.23
8894;BME280;4483;48.622;9.230;2022-07-23T08:10:03;98006.16;;;28.50;50.95
8894;BME280;4483;48.622;9.230;2022-07-23T08:12:39;98014.66;;;28.93;49.53
8894;BME280;4483;48.622;9.230;2022-07-23T08:15:07;98026.72;;;29.34;49.53
8894;BME280;4483;48.622;9.230;2022-07-23T08:17:34;98009.41;;;29.91;48.80
8894;BME280;4483;48.622;9.230;2022-07-23T08:20:01;98005.13;;;30.27;46.85
8894;BME280;4483;48.622;9.230;2022-07-23T08:22:42;98014.50;;;30.38;45.08
8894;BME280;4483;48.622;9.230;2022-07-23T08:25:09;98007.06;;;30.48;44.58
8894;BME280;4483;48.622;9.230;2022-07-23T08:27:37;98001.47;;;30.57;44.49
8894;BME280;4483;48.622;9.230;2022-07-23T08:30:08;98004.16;;;30.87;43.79
8894;BME280;4483;48.622;9.230;2022-07-23T08:32:48;98003.41;;;30.93;43.18
8894;BME280;4483;48.622;9.230;2022-07-23T08:35:15;98012.84;;;30.81;43.90
8894;BME280;4483;48.622;9.230;2022-07-23T08:37:43;97998.75;;;30.95;43.88
8894;BME280;4483;48.622;9.230;2022-07-23T08:40:11;98007.50;;;30.81;42.71
8894;BME280;4483;48.622;9.230;2022-07-23T08:42:39;98014.03;;;31.07;42.88
8894;BME280;4483;48.622;9.230;2022-07-23T08:45:08;98013.47;;;31.12;42.36
8894;BME280;4483;48.622;9.230;2022-07-23T08:47:37;98019.38;;;31.07;42.88
8894;BME280;4483;48.622;9.230;2022-07-23T08:50:04;98022.50;;;31.32;42.73
8894;BME280;4483;48.622;9.230;2022-07-23T08:52:34;98020.03;;;31.30;42.58
8894;BME280;4483;48.622;9.230;2022-07-23T08:55:01;98021.19;;;31.57;41.13
8894;BME280;4483;48.622;9.230;2022-07-23T08:57:29;98019.47;;;31.49;41.66
8894;BME280;4483;48.622;9.230;2022-07-23T08:59:57;98019.03;;;31.46;42.63
8894;BME280;4483;48.622;9.230;2022-07-23T09:02:25;98016.75;;;31.64;41.95
8894;BME280;4483;48.622;9.230;2022-07-23T09:04:53;98007.66;;;31.37;42.18
8894;BME280;4483;48.622;9.230;2022-07-23T09:07:21;98009.72;;;31.06;42.69
8894;BME280;4483;48.622;9.230;2022-07-23T09:10:05;98003.75;;;30.75;42.87
8894;BME280;4483;48.622;9.230;2022-07-23T09:12:32;98002.78;;;30.61;43.57
8894;BME280;4483;48.622;9.230;2022-07-23T09:15:04;98003.69;;;30.68;43.97
8894;BME280;4483;48.622;9.230;2022-07-23T09:17:39;97998.69;;;31.24;44.09
8894;BME280;4483;48.622;9.230;2022-07-23T09:20:11;98004.00;;;31.81;42.63
8894;BME280;4483;48.622;9.230;2022-07-23T09:22:38;98001.69;;;32.47;42.01
8894;BME280;4483;48.622;9.230;2022-07-23T09:25:09;97998.75;;;33.11;40.34
8894;BME280;4483;48.622;9.230;2022-07-23T09:27:53;97990.31;;;33.68;39.22
8894;BME280;4483;48.622;9.230;2022-07-23T09:30:22;97996.22;;;33.50;38.41
8894;BME280;4483;48.622;9.230;2022-07-23T09:33:08;97996.84;;;33.52;38.04
8894;BME280;4483;48.622;9.230;2022-07-23T09:35:48;97990.59;;;33.32;38.13
8894;BME280;4483;48.622;9.230;2022-07-23T09:38:18;97997.88;;;32.63;38.98
8894;BME280;4483;48.622;9.230;2022-07-23T09:40:45;97995.03;;;32.65;39.19
8894;BME280;4483;48.622;9.230;2022-07-23T09:43:13;97994.84;;;33.07;38.35
8894;BME280;4483;48.622;9.230;2022-07-23T09:45:52;97993.38;;;33.04;38.49
8894;BME280;4483;48.622;9.230;2022-07-23T09:48:21;97990.28;;;33.01;38.83
8894;BME280;4483;48.622;9.230;2022-07-23T09:50:51;97984.59;;;33.17;38.90
8894;BME280;4483;48.622;9.230;2022-07-23T09:53:24;97986.72;;;33.34;38.01
8894;BME280;4483;48.622;9.230;2022-07-23T09:55:54;97983.88;;;33.56;37.75
8894;BME280;4483;48.622;9.230;2022-07-23T09:58:25;97986.50;;;33.42;37.91
8894;BME280;4483;48.622;9.230;2022-07-23T10:00:53;97981.88;;;33.64;37.79
8894;BME280;4483;48.622;9.230;2022-07-23T10:03:23;97982.91;;;33.76;37.32
8894;BME280;4483;48.622;9.230;2022-07-23T10:05:52;97977.59;;;34.02;37.35
8894;BME280;4483;48.622;9.230;2022-07-23T10:08:21;97989.28;;;34.01;37.14
8894;BME280;4483;48.622;9.230;2022-07-23T10:10:50;97993.00;;;34.26;36.94
8894;BME280;4483;48.622;9.230;2022-07-23T10:13:17;97985.16;;;34.31;36.25
8894;BME280;4483;48.622;9.230;2022-07-23T10:16:02;97992.34;;;34.44;36.05
8894;BME280;4483;48.622;9.230;2022-07-23T10:18:30;97982.50;;;34.44;36.11
8894;BME280;4483;48.622;9.230;2022-07-23T10:20:57;97980.19;;;34.55;35.85
8894;BME280;4483;48.622;9.230;2022-07-23T10:23:42;97973.59;;;34.70;36.39
8894;BME280;4483;48.622;9.230;2022-07-23T10:26:19;97972.44;;;34.91;35.85
8894;BME280;4483;48.622;9.230;2022-07-23T10:29:02;97972.72;;;34.83;35.01
8894;BME280;4483;48.622;9.230;2022-07-23T10:31:41;97973.94;;;34.80;35.30
8894;BME280;4483;48.622;9.230;2022-07-23T10:34:21;97971.75;;;35.15;35.22
8894;BME280;4483;48.622;9.230;2022-07-23T10:36:55;97972.19;;;35.50;34.67
8894;BME280;4483;48.622;9.230;2022-07-23T10:39:24;97977.69;;;35.61;34.90
8894;BME280;4483;48.622;9.230;2022-07-23T10:42:07;97981.94;;;35.44;34.81
8894;BME280;4483;48.622;9.230;2022-07-23T10:44:38;97979.63;;;35.48;34.64
8894;BME280;4483;48.622;9.230;2022-07-23T10:47:06;97972.22;;;35.05;34.92
8894;BME280;4483;48.622;9.230;2022-07-23T10:50:19;97974.44;;;34.58;36.34
8894;BME280;4483;48.622;9.230;2022-07-23T10:53:09;97973.13;;;34.80;35.74
8894;BME280;4483;48.622;9.230;2022-07-23T10:55:43;97977.66;;;34.79;35.99
8894;BME280;4483;48.622;9.230;2022-07-23T10:58:10;97974.25;;;34.33;36.33
8894;BME280;4483;48.622;9.230;2022-07-23T11:00:37;97973.03;;;34.35;36.28
8894;BME280;4483;48.622;9.230;2022-07-23T11:03:05;97972.75;;;34.70;36.29
8894;BME280;4483;48.622;9.230;2022-07-23T11:05:52;97964.00;;;35.00;35.92
8894;BME280;4483;48.622;9.230;2022-07-23T11:08:19;97960.34;;;34.82;35.90
8894;BME280;4483;48.622;9.230;2022-07-23T11:10:49;97959.16;;;34.78;36.12
8894;BME280;4483;48.622;9.230;2022-07-23T11:13:30;97958.56;;;34.63;36.36
8894;BME280;4483;48.622;9.230;2022-07-23T11:16:11;97963.06;;;34.75;35.56
8894;BME280;4483;48.622;9.230;2022-07-23T11:18:57;97960.06;;;34.45;36.24
8894;BME280;4483;48.622;9.230;2022-07-23T11:21:49;97958.88;;;34.99;36.22
8894;BME280;4483;48.622;9.230;2022-07-23T11:24:22;97971.22;;;35.44;35.17
8894;BME280;4483;48.622;9.230;2022-07-23T11:26:52;97969.06;;;35.59;34.41
8894;BME280;4483;48.622;9.230;2022-07-23T11:29:40;97971.97;;;35.20;34.64
8894;BME280;4483;48.622;9.230;2022-07-23T11:35:01;97971.22;;;34.10;36.26
8894;BME280;4483;48.622;9.230;2022-07-23T11:37:35;97964.78;;;33.65;37.15
8894;BME280;4483;48.622;9.230;2022-07-23T11:40:06;97971.91;;;33.32;38.05
8894;BME280;4483;48.622;9.230;2022-07-23T11:42:36;97972.91;;;33.24;38.41
8894;BME280;4483;48.622;9.230;2022-07-23T11:45:05;97984.91;;;33.48;38.48
8894;BME280;4483;48.622;9.230;2022-07-23T11:47:32;97976.84;;;33.41;38.64
8894;BME280;4483;48.622;9.230;2022-07-23T11:50:02;97976.00;;;33.21;38.29
8894;BME280;4483;48.622;9.230;2022-07-23T11:52:30;97971.47;;;33.22;37.48
8894;BME280;4483;48.622;9.230;2022-07-23T11:54:58;97965.41;;;33.47;36.89
8894;BME280;4483;48.622;9.230;2022-07-23T11:57:29;97959.44;;;33.65;37.61
8894;BME280;4483;48.622;9.230;2022-07-23T11:59:58;97955.34;;;33.82;36.20
8894;BME280;4483;48.622;9.230;2022-07-23T12:02:32;97949.53;;;34.44;35.86
8894;BME280;4483;48.622;9.230;2022-07-23T12:05:00;97946.25;;;35.12;35.67
8894;BME280;4483;48.622;9.230;2022-07-23T12:07:30;97945.00;;;35.77;34.03
8894;BME280;4483;48.622;9.230;2022-07-23T12:10:00;97938.69;;;36.39;32.93
8894;BME280;4483;48.622;9.230;2022-07-23T12:12:27;97938.00;;;36.80;31.83
8894;BME280;4483;48.622;9.230;2022-07-23T12:15:01;97933.38;;;37.05;31.11
8894;BME280;4483;48.622;9.230;2022-07-23T12:17:29;97933.19;;;37.36;31.23
8894;BME280;4483;48.622;9.230;2022-07-23T12:19:58;97922.47;;;37.59;31.11
8894;BME280;4483;48.622;9.230;2022-07-23T12:22:35;97923.69;;;37.86;30.65
8894;BME280;4483;48.622;9.230;2022-07-23T12:25:05;97927.19;;;37.98;30.29
8894;BME280;4483;48.622;9.230;2022-07-23T12:27:34;97925.34;;;38.10;30.05
8894;BME280;4483;48.622;9.230;2022-07-23T12:30:23;97923.28;;;37.71;29.52
8894;BME280;4483;48.622;9.230;2022-07-23T12:32:53;97926.88;;;36.83;29.60
8894;BME280;4483;48.622;9.230;2022-07-23T12:35:22;97923.75;;;36.25;30.27
8894;BME280;4483;48.622;9.230;2022-07-23T12:37:51;97930.56;;;35.78;31.60
8894;BME280;4483;48.622;9.230;2022-07-23T12:40:29;97933.22;;;35.54;32.21
8894;BME280;4483;48.622;9.230;2022-07-23T12:42:59;97941.16;;;35.35;32.28
8894;BME280;4483;48.622;9.230;2022-07-23T12:45:28;97941.38;;;35.65;32.26
8894;BME280;4483;48.622;9.230;2022-07-23T12:47:58;97932.94;;;35.93;31.38
8894;BME280;4483;48.622;9.230;2022-07-23T12:50:36;97931.16;;;36.05;30.73
8894;BME280;4483;48.622;9.230;2022-07-23T12:53:08;97923.22;;;36.16;30.50
8894;BME280;4483;48.622;9.230;2022-07-23T12:55:36;97937.94;;;35.83;31.01
8894;BME280;4483;48.622;9.230;2022-07-23T12:58:05;97950.19;;;35.41;31.90
8894;BME280;4483;48.622;9.230;2022-07-23T13:03:35;97939.06;;;34.42;33.51
8894;BME280;4483;48.622;9.230;2022-07-23T13:06:05;97953.06;;;33.60;34.84
8894;BME280;4483;48.622;9.230;2022-07-23T13:08:37;97946.84;;;33.33;35.37
8894;BME280;4483;48.622;9.230;2022-07-23T13:11:06;97946.94;;;32.99;35.31
8894;BME280;4483;48.622;9.230;2022-07-23T13:13:34;97945.66;;;32.82;36.11
8894;BME280;4483;48.622;9.230;2022-07-23T13:16:02;97949.03;;;32.63;36.89
8894;BME280;4483;48.622;9.230;2022-07-23T13:18:31;97950.94;;;32.41;36.83
8894;BME280;4483;48.622;9.230;2022-07-23T13:20:58;97948.72;;;32.10;37.25
8894;BME280;4483;48.622;9.230;2022-07-23T13:23:25;97966.09;;;31.85;38.86
8894;BME280;4483;48.622;9.230;2022-07-23T13:25:53;97972.59;;;31.76;38.45
8894;BME280;4483;48.622;9.230;2022-07-23T13:28:21;97964.34;;;31.71;38.58
8894;BME280;4483;48.622;9.230;2022-07-23T13:30:51;97964.34;;;31.92;38.94
8894;BME280;4483;48.622;9.230;2022-07-23T13:33:22;97959.22;;;32.18;38.58
8894;BME280;4483;48.622;9.230;2022-07-23T13:35:50;97960.03;;;32.46;39.38
8894;BME280;4483;48.622;9.230;2022-07-23T13:38:20;97957.66;;;32.65;38.29